createdAt,value
2022-12-11T00:01:13.038Z,100074.40
2022-12-11T00:03:42.791Z,100076.00
2022-12-11T00:06:16.734Z,100074.20
2022-12-11T00:08:44.778Z,100068.80
2022-12-11T00:11:15.722Z,100073.40
2022-12-11T00:13:44.398Z,100072.60
2022-12-11T00:16:13.054Z,100076.60
2022-12-11T00:18:41.440Z,100079.20
2022-12-11T00:21:14.383Z,100084.80
2022-12-11T00:23:42.786Z,100080.40
2022-12-11T00:26:15.466Z,100077.40
2022-12-11T00:28:45.450Z,100077.00
2022-12-11T00:31:17.059Z,100067.60
2022-12-11T00:33:49.076Z,100059.80
2022-12-11T00:36:25.400Z,100055.40
2022-12-11T00:38:54.351Z,100054.40
2022-12-11T00:41:22.663Z,100055.20
2022-12-11T00:43:51.368Z,100061.60
2022-12-11T00:46:19.601Z,100072.80
2022-12-11T00:48:49.817Z,100060.80
2022-12-11T00:51:18.064Z,100060.20
2022-12-11T00:53:45.908Z,100062.60
2022-12-11T00:56:18.204Z,100063.40
2022-12-11T00:58:48.253Z,100058.60
2022-12-11T01:01:21.853Z,100056.40
2022-12-11T01:03:50.820Z,100054.40
2022-12-11T01:06:26.048Z,100048.40
2022-12-11T01:09:22.153Z,100048.60
2022-12-11T01:11:50.040Z,100050.60
2022-12-11T01:14:17.776Z,100048.80
2022-12-11T01:16:45.535Z,100044.60
2022-12-11T01:19:13.261Z,100040.40
2022-12-11T01:21:41.202Z,100042.00
2022-12-11T01:24:08.997Z,100031.20
2022-12-11T01:26:36.878Z,100030.60
2022-12-11T01:29:04.541Z,100027.00
2022-12-11T01:31:32.254Z,100033.80
2022-12-11T01:33:59.974Z,100036.60
2022-12-11T01:36:27.726Z,100040.80
2022-12-11T01:38:56.141Z,100041.40
2022-12-11T01:41:23.868Z,100038.80
2022-12-11T01:44:13.676Z,100034.20
2022-12-11T01:46:43.019Z,100028.80
2022-12-11T01:49:15.177Z,100026.60
2022-12-11T01:51:55.433Z,100029.00
2022-12-11T01:54:25.568Z,100029.60
2022-12-11T01:57:00.136Z,100031.80
2022-12-11T01:59:34.145Z,100036.80
2022-12-11T02:02:12.284Z,100031.80
2022-12-11T02:04:42.280Z,100034.60
2022-12-11T02:07:10.543Z,100030.80
2022-12-11T02:09:42.476Z,100033.40
2022-12-11T02:12:39.222Z,100024.80
2022-12-11T02:15:25.140Z,100025.60
2022-12-11T02:18:02.134Z,100021.60
2022-12-11T02:21:15.609Z,100020.20
2022-12-11T02:24:04.267Z,100018.20
2022-12-11T02:26:57.545Z,100022.20
2022-12-11T02:29:38.908Z,100020.40
2022-12-11T02:32:20.980Z,100019.00
2022-12-11T02:35:11.405Z,100015.60
2022-12-11T02:37:45.085Z,100015.60
2022-12-11T02:40:17.866Z,100020.80
2022-12-11T02:42:48.932Z,100024.00
2022-12-11T02:45:19.945Z,100022.40
2022-12-11T02:47:49.583Z,100025.00
2022-12-11T02:50:21.986Z,100023.80
2022-12-11T02:52:55.747Z,100020.60
2022-12-11T02:55:27.548Z,100012.20
2022-12-11T02:58:04.201Z,100016.60
2022-12-11T03:00:32.252Z,100013.60
2022-12-11T03:03:00.048Z,100015.40
2022-12-11T03:05:27.997Z,100001.40
2022-12-11T03:07:56.310Z,100008.00
2022-12-11T03:10:25.133Z,100007.60
2022-12-11T03:12:56.985Z,99999.40
2022-12-11T03:15:59.227Z,100000.80
2022-12-11T03:19:06.605Z,100001.60
2022-12-11T03:21:42.666Z,99996.00
2022-12-11T03:24:44.202Z,99994.40
2022-12-11T03:27:26.728Z,99990.60
2022-12-11T03:30:01.567Z,99993.60
2022-12-11T03:32:38.306Z,99995.00
2022-12-11T03:35:16.182Z,99985.60
2022-12-11T03:37:47.880Z,99976.60
2022-12-11T03:40:20.500Z,99986.60
2022-12-11T03:42:53.646Z,99976.60
2022-12-11T03:45:25.406Z,99972.80
2022-12-11T03:47:56.850Z,99971.60
2022-12-11T03:50:27.169Z,99974.20
2022-12-11T03:52:57.564Z,99971.20
2022-12-11T03:55:28.115Z,99971.40
2022-12-11T03:57:55.935Z,99971.60
2022-12-11T04:00:23.839Z,99969.00
2022-12-11T04:03:13.544Z,99969.20
2022-12-11T04:05:46.383Z,99974.60
2022-12-11T04:08:15.468Z,99973.20
2022-12-11T04:10:44.037Z,99973.40
2022-12-11T04:13:12.150Z,99977.20
2022-12-11T04:15:40.865Z,99979.00
2022-12-11T04:18:28.009Z,99977.40
2022-12-11T04:21:15.176Z,99969.00
2022-12-11T04:24:01.774Z,99966.80
2022-12-11T04:26:29.440Z,99965.40
2022-12-11T04:28:57.160Z,99969.20
2022-12-11T04:31:24.895Z,99971.00
2022-12-11T04:33:53.201Z,99975.80
2022-12-11T04:36:21.289Z,99971.00
2022-12-11T04:38:49.013Z,99967.00
2022-12-11T04:41:17.980Z,99968.40
2022-12-11T04:43:45.743Z,99964.60
2022-12-11T04:46:21.371Z,99965.40
2022-12-11T04:48:55.397Z,99961.80
2022-12-11T04:51:25.960Z,99963.40
2022-12-11T04:53:54.479Z,99961.20
2022-12-11T04:56:22.387Z,99954.00
2022-12-11T04:58:50.222Z,99949.00
2022-12-11T05:01:22.709Z,99953.20
2022-12-11T05:03:50.933Z,99951.60
2022-12-11T05:06:18.652Z,99948.80
2022-12-11T05:08:46.473Z,99948.40
2022-12-11T05:11:15.810Z,99950.40
2022-12-11T05:13:45.428Z,99943.60
2022-12-11T05:16:16.515Z,99946.80
2022-12-11T05:18:44.843Z,99939.00
2022-12-11T05:21:15.778Z,99943.40
2022-12-11T05:23:44.036Z,99934.60
2022-12-11T05:26:17.721Z,99937.80
2022-12-11T05:28:46.997Z,99934.20
2022-12-11T05:31:19.049Z,99936.60
2022-12-11T05:33:50.180Z,99943.20
2022-12-11T05:36:29.737Z,99932.20
2022-12-11T05:39:00.621Z,99938.60
2022-12-11T05:41:32.573Z,99935.40
2022-12-11T05:44:00.458Z,99936.20
2022-12-11T05:46:31.231Z,99929.60
2022-12-11T05:49:02.262Z,99933.60
2022-12-11T05:51:31.157Z,99932.60
2022-12-11T05:53:58.928Z,99933.20
2022-12-11T05:56:33.941Z,99927.40
2022-12-11T05:59:04.172Z,99930.60
2022-12-11T06:01:42.788Z,99932.20
2022-12-11T06:04:12.457Z,99934.20
2022-12-11T06:06:40.905Z,99935.60
2022-12-11T06:09:08.687Z,99938.40
2022-12-11T06:11:36.495Z,99937.80
2022-12-11T06:14:04.710Z,99933.00
2022-12-11T06:16:32.585Z,99926.00
2022-12-11T06:19:00.576Z,99933.00
2022-12-11T06:21:33.181Z,99929.00
2022-12-11T06:24:03.749Z,99928.80
2022-12-11T06:26:32.312Z,99928.40
2022-12-11T06:29:00.290Z,99929.20
2022-12-11T06:31:28.250Z,99930.40
2022-12-11T06:33:56.300Z,99928.00
2022-12-11T06:36:25.188Z,99927.00
2022-12-11T06:38:55.396Z,99926.40
2022-12-11T06:41:23.289Z,99933.60
2022-12-11T06:43:51.120Z,99936.40
2022-12-11T06:46:20.841Z,99926.60
2022-12-11T06:48:49.870Z,99932.60
2022-12-11T06:51:21.934Z,99930.00
2022-12-11T06:53:55.192Z,99931.20
2022-12-11T06:56:24.622Z,99933.00
2022-12-11T06:58:53.104Z,99927.20
2022-12-11T07:01:25.670Z,99933.20
2022-12-11T07:03:56.435Z,99938.60
2022-12-11T07:06:27.468Z,99941.40
2022-12-11T07:08:56.640Z,99930.00
2022-12-11T07:11:24.383Z,99932.60
2022-12-11T07:13:52.194Z,99932.20
2022-12-11T07:16:20.276Z,99934.00
2022-12-11T07:18:51.373Z,99935.40
2022-12-11T07:21:21.242Z,99932.20
2022-12-11T07:23:50.323Z,99927.00
2022-12-11T07:26:22.208Z,99931.40
2022-12-11T07:28:50.250Z,99935.40
2022-12-11T07:31:23.023Z,99938.80
2022-12-11T07:34:02.005Z,99933.80
2022-12-11T07:36:31.123Z,99931.20
2022-12-11T07:39:00.781Z,99926.60
2022-12-11T07:41:28.868Z,99928.00
2022-12-11T07:43:56.565Z,99929.00
2022-12-11T07:46:29.032Z,99930.60
2022-12-11T07:48:56.919Z,99926.00
2022-12-11T07:51:28.799Z,99935.60
2022-12-11T07:54:00.699Z,99933.00
2022-12-11T07:56:30.341Z,99932.20
2022-12-11T07:59:02.207Z,99932.00
2022-12-11T08:01:35.664Z,99932.20
2022-12-11T08:04:07.455Z,99928.60
2022-12-11T08:06:38.768Z,99924.80
2022-12-11T08:09:09.831Z,99929.80
2022-12-11T08:11:38.339Z,99930.80
2022-12-11T08:14:07.897Z,99934.60
2022-12-11T08:16:36.532Z,99928.40
2022-12-11T08:19:04.648Z,99931.00
2022-12-11T08:21:32.350Z,99935.20
2022-12-11T08:24:00.169Z,99925.20
2022-12-11T08:26:31.837Z,99921.00
2022-12-11T08:29:02.026Z,99919.20
2022-12-11T08:31:30.513Z,99923.00
2022-12-11T08:33:58.492Z,99919.00
2022-12-11T08:36:26.442Z,99934.00
2022-12-11T08:38:56.316Z,99928.00
2022-12-11T08:41:28.729Z,99922.40
2022-12-11T08:43:58.634Z,99922.60
2022-12-11T08:46:30.667Z,99922.60
2022-12-11T08:48:59.603Z,99928.00
2022-12-11T08:51:30.262Z,99922.80
2022-12-11T08:54:01.077Z,99917.80
2022-12-11T08:56:30.277Z,99920.20
2022-12-11T08:59:01.120Z,99918.60
2022-12-11T09:01:29.771Z,99920.20
2022-12-11T09:03:58.116Z,99920.80
2022-12-11T09:06:30.178Z,99914.20
2022-12-11T09:09:01.489Z,99914.80
2022-12-11T09:11:33.038Z,99915.80
2022-12-11T09:14:07.129Z,99922.40
2022-12-11T09:16:40.440Z,99923.60
2022-12-11T09:19:14.306Z,99924.20
2022-12-11T09:21:43.864Z,99925.60
2022-12-11T09:24:13.558Z,99926.80
2022-12-11T09:26:41.508Z,99924.00
2022-12-11T09:29:10.778Z,99922.00
2022-12-11T09:31:38.511Z,99923.20
2022-12-11T09:34:09.210Z,99918.40
2022-12-11T09:36:40.247Z,99916.40
2022-12-11T09:39:10.831Z,99915.80
2022-12-11T09:42:11.196Z,99909.60
2022-12-11T09:44:52.276Z,99913.20
2022-12-11T09:47:38.437Z,99909.60
2022-12-11T09:50:09.124Z,99914.60
2022-12-11T09:53:17.817Z,99917.20
2022-12-11T09:56:15.824Z,99924.00
2022-12-11T09:59:03.143Z,99924.00
2022-12-11T10:01:49.339Z,99923.00
2022-12-11T10:04:32.077Z,99923.40
2022-12-11T10:07:15.446Z,99921.80
2022-12-11T10:10:01.433Z,99924.20
2022-12-11T10:13:02.853Z,99924.80
2022-12-11T10:15:47.625Z,99924.80
2022-12-11T10:18:23.083Z,99927.00
2022-12-11T10:20:53.853Z,99925.00
2022-12-11T10:23:38.408Z,99929.20
2022-12-11T10:26:16.792Z,99923.00
2022-12-11T10:28:45.020Z,99912.00
2022-12-11T10:31:56.048Z,99915.20
2022-12-11T10:34:40.032Z,99907.00
2022-12-11T10:37:07.911Z,99906.40
2022-12-11T10:39:35.630Z,99901.00
2022-12-11T10:42:18.382Z,99899.60
2022-12-11T10:45:16.385Z,99898.00
2022-12-11T10:47:44.165Z,99902.80
2022-12-11T10:50:26.345Z,99900.00
2022-12-11T10:52:54.228Z,99895.60
2022-12-11T10:55:27.216Z,99894.20
2022-12-11T10:58:00.960Z,99896.00
2022-12-11T11:00:35.108Z,99897.00
2022-12-11T11:03:05.918Z,99893.40
2022-12-11T11:05:36.946Z,99884.40
2022-12-11T11:08:24.290Z,99891.00
2022-12-11T11:10:59.928Z,99889.20
2022-12-11T11:13:32.486Z,99883.60
2022-12-11T11:16:12.425Z,99883.20
2022-12-11T11:18:41.962Z,99876.00
2022-12-11T11:21:24.047Z,99876.40
2022-12-11T11:23:54.211Z,99873.00
2022-12-11T11:26:23.128Z,99871.40
2022-12-11T11:28:57.317Z,99874.00
2022-12-11T11:31:35.078Z,99871.60
2022-12-11T11:34:10.757Z,99868.40
2022-12-11T11:36:38.629Z,99863.20
2022-12-11T11:39:32.691Z,99868.80
2022-12-11T11:42:20.962Z,99871.80
2022-12-11T11:45:20.609Z,99868.80
2022-12-11T11:48:11.048Z,99871.40
2022-12-11T11:50:45.649Z,99869.40
2022-12-11T11:53:31.158Z,99870.20
2022-12-11T11:56:37.632Z,99870.60
2022-12-11T11:59:27.019Z,99864.20
2022-12-11T12:01:57.904Z,99854.20
2022-12-11T12:04:34.225Z,99848.80
2022-12-11T12:07:19.832Z,99850.20
2022-12-11T12:10:13.299Z,99846.80
2022-12-11T12:12:52.276Z,99847.00
2022-12-11T12:16:01.527Z,99845.20
2022-12-11T12:19:03.654Z,99846.00
2022-12-11T12:21:37.519Z,99847.40
2022-12-11T12:24:15.591Z,99843.60
2022-12-11T12:27:00.274Z,99839.20
2022-12-11T12:29:56.668Z,99836.80
2022-12-11T12:32:36.502Z,99837.00
2022-12-11T12:35:50.471Z,99836.60
2022-12-11T12:38:43.695Z,99838.80
2022-12-11T12:42:05.619Z,99834.20
2022-12-11T12:45:12.486Z,99826.80
2022-12-11T12:47:46.673Z,99829.00
2022-12-11T12:50:21.838Z,99825.40
2022-12-11T12:52:53.041Z,99824.20
2022-12-11T12:55:31.727Z,99826.80
2022-12-11T12:58:05.297Z,99825.80
2022-12-11T13:00:41.146Z,99822.80
2022-12-11T13:03:23.052Z,99817.40
2022-12-11T13:06:04.872Z,99813.00
2022-12-11T13:08:52.608Z,99810.00
2022-12-11T13:11:32.860Z,99808.20
2022-12-11T13:14:22.088Z,99810.20
2022-12-11T13:16:53.363Z,99806.60
2022-12-11T13:19:24.093Z,99810.40
2022-12-11T13:22:24.177Z,99814.60
2022-12-11T13:24:51.834Z,99817.20
2022-12-11T13:27:26.228Z,99819.20
2022-12-11T13:30:24.412Z,99816.20
2022-12-11T13:33:15.656Z,99818.60
2022-12-11T13:35:43.818Z,99814.80
2022-12-11T13:38:20.111Z,99810.40
2022-12-11T13:40:55.654Z,99812.00
2022-12-11T13:43:30.920Z,99814.20
2022-12-11T13:46:12.966Z,99813.40
2022-12-11T13:48:57.117Z,99813.60
2022-12-11T13:51:27.007Z,99818.40
2022-12-11T13:54:17.863Z,99819.40
2022-12-11T13:56:59.201Z,99814.80
2022-12-11T13:59:37.805Z,99815.20
2022-12-11T14:02:21.225Z,99818.60
2022-12-11T14:04:54.867Z,99815.60
2022-12-11T14:07:47.950Z,99814.60
2022-12-11T14:10:27.630Z,99805.40
2022-12-11T14:13:07.456Z,99802.60
2022-12-11T14:15:36.863Z,99801.00
2022-12-11T14:18:05.574Z,99803.60
2022-12-11T14:20:34.541Z,99801.80
2022-12-11T14:23:18.849Z,99817.40
2022-12-11T14:25:55.389Z,99810.20
2022-12-11T14:28:27.731Z,99807.60
2022-12-11T14:30:59.726Z,99814.00
2022-12-11T14:33:34.004Z,99814.00
2022-12-11T14:36:03.450Z,99808.40
2022-12-11T14:38:44.472Z,99804.20
2022-12-11T14:42:07.455Z,99805.20
2022-12-11T14:45:20.660Z,99802.40
2022-12-11T14:47:50.676Z,99803.00
2022-12-11T14:50:39.431Z,99792.80
2022-12-11T14:53:41.777Z,99796.00
2022-12-11T14:56:23.223Z,99794.40
2022-12-11T14:59:25.474Z,99792.40
2022-12-11T15:02:32.602Z,99793.20
2022-12-11T15:05:19.406Z,99795.60
2022-12-11T15:08:13.480Z,99792.40
2022-12-11T15:10:55.442Z,99797.00
2022-12-11T15:13:24.356Z,99793.40
2022-12-11T15:15:55.681Z,99795.00
2022-12-11T15:18:32.689Z,99798.40
2022-12-11T15:21:07.069Z,99797.00
2022-12-11T15:23:54.635Z,99798.40
2022-12-11T15:26:44.718Z,99801.20
2022-12-11T15:29:36.194Z,99806.20
2022-12-11T15:32:21.709Z,99809.20
2022-12-11T15:34:59.787Z,99816.40
2022-12-11T15:37:33.138Z,99817.60
2022-12-11T15:40:04.707Z,99811.40
2022-12-11T15:42:36.940Z,99810.40
2022-12-11T15:45:16.149Z,99803.20
2022-12-11T15:47:44.544Z,99801.60
2022-12-11T15:50:21.828Z,99795.80
2022-12-11T15:52:51.957Z,99793.40
2022-12-11T15:55:22.398Z,99795.40
2022-12-11T15:57:58.051Z,99798.00
2022-12-11T16:00:28.057Z,99796.40
2022-12-11T16:02:57.395Z,99803.20
2022-12-11T16:05:26.917Z,99794.60
2022-12-11T16:07:59.173Z,99793.00
2022-12-11T16:10:27.418Z,99796.60
2022-12-11T16:12:59.336Z,99790.80
2022-12-11T16:15:27.189Z,99789.40
2022-12-11T16:18:08.388Z,99794.00
2022-12-11T16:20:38.225Z,99792.60
2022-12-11T16:23:06.002Z,99793.40
2022-12-11T16:25:34.406Z,99794.80
2022-12-11T16:28:02.189Z,99791.80
2022-12-11T16:30:30.194Z,99793.80
2022-12-11T16:32:57.925Z,99792.20
2022-12-11T16:35:25.638Z,99794.60
2022-12-11T16:37:54.199Z,99795.20
2022-12-11T16:40:22.744Z,99795.20
2022-12-11T16:42:50.918Z,99799.40
2022-12-11T16:45:23.648Z,99800.60
2022-12-11T16:47:52.614Z,99803.80
2022-12-11T16:50:22.371Z,99803.80
2022-12-11T16:52:50.184Z,99803.60
2022-12-11T16:55:22.024Z,99802.80
2022-12-11T16:57:49.735Z,99804.60
2022-12-11T17:00:17.772Z,99806.20
2022-12-11T17:02:45.517Z,99807.40
2022-12-11T17:05:13.859Z,99807.80
2022-12-11T17:07:41.709Z,99806.60
2022-12-11T17:10:10.690Z,99804.60
2022-12-11T17:12:38.959Z,99802.00
2022-12-11T17:15:07.658Z,99804.20
2022-12-11T17:17:35.467Z,99802.20
2022-12-11T17:20:03.963Z,99799.80
2022-12-11T17:22:31.674Z,99795.00
2022-12-11T17:24:59.396Z,99795.00
2022-12-11T17:27:27.493Z,99794.80
2022-12-11T17:29:55.193Z,99794.20
2022-12-11T17:32:22.897Z,99800.00
2022-12-11T17:34:50.727Z,99794.00
2022-12-11T17:37:18.618Z,99792.20
2022-12-11T17:39:47.507Z,99790.40
2022-12-11T17:42:15.302Z,99786.60
2022-12-11T17:44:45.364Z,99787.40
2022-12-11T17:47:13.308Z,99794.60
2022-12-11T17:49:41.163Z,99798.00
2022-12-11T17:52:09.055Z,99803.20
2022-12-11T17:54:36.797Z,99793.40
2022-12-11T17:57:06.449Z,99803.00
2022-12-11T17:59:34.216Z,99800.40
2022-12-11T18:02:02.069Z,99803.60
2022-12-11T18:04:30.093Z,99798.00
2022-12-11T18:06:58.027Z,99803.20
2022-12-11T18:09:25.844Z,99804.40
2022-12-11T18:11:53.864Z,99803.00
2022-12-11T18:14:21.695Z,99803.80
2022-12-11T18:16:49.660Z,99806.40
2022-12-11T18:19:17.600Z,99807.60
2022-12-11T18:21:45.771Z,99809.00
2022-12-11T18:24:13.476Z,99809.00
2022-12-11T18:26:44.204Z,99805.80
2022-12-11T18:29:12.429Z,99802.40
2022-12-11T18:31:42.828Z,99806.60
2022-12-11T18:34:11.064Z,99806.80
2022-12-11T18:36:40.681Z,99809.60
2022-12-11T18:39:09.157Z,99804.20
2022-12-11T18:41:36.931Z,99810.40
2022-12-11T18:44:09.500Z,99807.20
2022-12-11T18:46:39.507Z,99808.00
2022-12-11T18:49:07.584Z,99801.20
2022-12-11T18:51:35.930Z,99800.00
2022-12-11T18:54:03.892Z,99796.60
2022-12-11T18:56:31.702Z,99798.20
2022-12-11T18:58:59.384Z,99798.40
2022-12-11T19:01:30.126Z,99800.80
2022-12-11T19:04:04.544Z,99803.20
2022-12-11T19:06:35.679Z,99805.60
2022-12-11T19:09:06.599Z,99802.20
2022-12-11T19:11:38.925Z,99797.20
2022-12-11T19:14:08.038Z,99804.80
2022-12-11T19:16:40.749Z,99805.80
2022-12-11T19:19:19.504Z,99804.20
2022-12-11T19:21:49.613Z,99813.20
2022-12-11T19:24:23.251Z,99816.60
2022-12-11T19:26:51.732Z,99807.40
2022-12-11T19:29:26.972Z,99809.40
2022-12-11T19:31:55.997Z,99813.80
2022-12-11T19:34:24.807Z,99820.60
2022-12-11T19:36:53.623Z,99814.40
2022-12-11T19:39:21.452Z,99818.80
2022-12-11T19:41:49.679Z,99823.20
2022-12-11T19:44:17.485Z,99816.40
2022-12-11T19:46:45.287Z,99820.40
2022-12-11T19:49:13.068Z,99819.00
2022-12-11T19:51:42.570Z,99819.60
2022-12-11T19:54:15.522Z,99820.20
2022-12-11T19:56:44.367Z,99824.20
2022-12-11T19:59:16.681Z,99817.40
2022-12-11T20:01:47.913Z,99815.20
2022-12-11T20:04:17.660Z,99817.60
2022-12-11T20:06:47.130Z,99810.00
2022-12-11T20:09:15.999Z,99808.80
2022-12-11T20:11:45.466Z,99812.60
2022-12-11T20:14:25.556Z,99814.20
2022-12-11T20:17:11.307Z,99810.00
2022-12-11T20:19:41.002Z,99814.00
2022-12-11T20:22:09.468Z,99810.80
2022-12-11T20:24:37.545Z,99808.60
2022-12-11T20:27:05.634Z,99806.80
2022-12-11T20:29:33.309Z,99808.40
2022-12-11T20:32:01.135Z,99815.20
2022-12-11T20:34:29.125Z,99812.00
2022-12-11T20:36:57.029Z,99818.60
2022-12-11T20:39:24.776Z,99821.00
2022-12-11T20:41:52.529Z,99822.40
2022-12-11T20:44:20.392Z,99823.20
2022-12-11T20:46:48.180Z,99822.80
2022-12-11T20:49:16.401Z,99820.20
2022-12-11T20:51:44.143Z,99817.80
2022-12-11T20:54:12.694Z,99823.80
2022-12-11T20:56:40.533Z,99822.20
2022-12-11T20:59:08.265Z,99820.00
2022-12-11T21:01:36.222Z,99820.60
2022-12-11T21:04:04.209Z,99816.00
2022-12-11T21:06:36.774Z,99823.80
2022-12-11T21:09:09.320Z,99819.60
2022-12-11T21:11:37.311Z,99819.60
2022-12-11T21:14:07.369Z,99819.60
2022-12-11T21:16:36.767Z,99818.20
2022-12-11T21:19:06.587Z,99812.60
2022-12-11T21:21:42.615Z,99816.60
2022-12-11T21:24:18.592Z,99821.60
2022-12-11T21:26:48.355Z,99814.80
2022-12-11T21:29:17.104Z,99814.40
2022-12-11T21:31:44.968Z,99820.20
2022-12-11T21:34:13.967Z,99822.20
2022-12-11T21:36:46.637Z,99823.40
2022-12-11T21:39:15.096Z,99823.80
2022-12-11T21:41:42.888Z,99825.60
2022-12-11T21:46:59.140Z,99830.00
2022-12-11T21:49:27.076Z,99834.80
2022-12-11T21:51:55.758Z,99835.20
2022-12-11T21:54:23.489Z,99834.60
2022-12-11T21:56:51.487Z,99838.00
2022-12-11T21:59:19.228Z,99835.40
2022-12-11T22:01:47.195Z,99839.40
2022-12-11T22:04:16.091Z,99845.40
2022-12-11T22:06:47.128Z,99840.60
2022-12-11T22:09:17.771Z,99842.00
2022-12-11T22:11:47.045Z,99843.00
2022-12-11T22:14:18.068Z,99849.60
2022-12-11T22:16:46.543Z,99848.20
2022-12-11T22:19:14.538Z,99840.20
2022-12-11T22:21:42.747Z,99841.80
2022-12-11T22:24:10.635Z,99846.60
2022-12-11T22:26:39.154Z,99845.00
2022-12-11T22:29:07.031Z,99844.80
2022-12-11T22:31:34.852Z,99840.60
2022-12-11T22:34:02.625Z,99841.20
2022-12-11T22:36:30.321Z,99841.20
2022-12-11T22:39:00.107Z,99841.40
2022-12-11T22:41:31.599Z,99840.20
2022-12-11T22:44:00.094Z,99840.20
2022-12-11T22:46:34.047Z,99842.00
2022-12-11T22:49:01.803Z,99838.20
2022-12-11T22:51:30.722Z,99845.00
2022-12-11T22:54:00.001Z,99845.80
2022-12-11T22:56:27.893Z,99849.20
2022-12-11T22:58:57.355Z,99843.20
2022-12-11T23:01:28.221Z,99852.80
2022-12-11T23:03:56.053Z,99851.80
2022-12-11T23:06:25.052Z,99853.00
2022-12-11T23:08:58.352Z,99851.40
2022-12-11T23:11:35.016Z,99853.20
2022-12-11T23:14:06.074Z,99851.40
2022-12-11T23:16:34.170Z,99845.80
2022-12-11T23:19:02.856Z,99845.80
2022-12-11T23:21:30.865Z,99840.20
2022-12-11T23:23:58.968Z,99836.80
2022-12-11T23:26:28.629Z,99844.80
2022-12-11T23:28:58.453Z,99843.00
2022-12-11T23:31:27.719Z,99841.40
2022-12-11T23:33:56.224Z,99840.40
2022-12-11T23:36:26.262Z,99834.00
2022-12-11T23:38:55.240Z,99834.60
2022-12-11T23:41:23.871Z,99836.80
2022-12-11T23:43:52.241Z,99838.00
2022-12-11T23:46:23.487Z,99837.20
2022-12-11T23:48:53.289Z,99832.20
2022-12-11T23:51:24.996Z,99838.80
2022-12-11T23:53:53.370Z,99835.00
2022-12-11T23:56:27.765Z,99831.20
2022-12-11T23:58:56.749Z,99835.00
